Have a Safe July 4th! 

Flight Track Log - Related Links

Times and Time Zones

All times are in EDT time to prevent confusion due to time zone crossing. See the JNH7 flight status page for this flight to view local times or setup timezone preferences in your user account.

Time Position Orientation Groundspeed Altitude Reporting Facility
EDT Latitude Longitude Course Direction KTS MPH feet Rate Location/Type
Fri 10:24:10 AM 40.4167 -105.0000 180° South 205 236 6,000  Level Denver TRACON
Fri 10:25:10 AM 40.3500 -105.0000 180° South 254 292 9,600 2,950 Climbing Denver TRACON
Fri 10:26:10 AM 40.2833 -105.0167 191° South 297 342 11,900 1,487 Climbing Denver TRACON
Fri 10:27:07 AM 40.2028 -105.0775 210° Southwest 317 365 12,500 1,678 Climbing Denver Center
Fri 10:28:08 AM 40.1264 -105.1408 212° Southwest 325 374 15,200 1,756 Climbing Denver Center
Fri 10:29:10 AM 40.0406 -105.2131 213° Southwest 361 415 16,100 1,839 Climbing Denver Center
Fri 10:30:12 AM 39.9461 -105.2911 212° Southwest 372 428 19,000 2,613 Climbing Denver Center
Fri 10:31:14 AM 39.8567 -105.3656 213° Southwest 380 437 21,500 2,468 Climbing Denver Center
Fri 10:32:16 AM 39.7544 -105.4528 213° Southwest 407 468 24,100 2,195 Climbing Denver Center
Fri 10:33:17 AM 39.6564 -105.5319 212° Southwest 411 473 26,000 1,610 Climbing Denver Center
Fri 10:34:19 AM 39.5608 -105.6303 218° Southwest 439 505 27,400 1,355 Climbing Denver Center
Fri 10:35:21 AM 39.5083 -105.7683 244° Southwest 431 496 28,800 1,452 Climbing Denver Center
Fri 10:36:23 AM 39.4700 -105.9122 251° West 420 483 30,400 1,548 Climbing Denver Center
Fri 10:37:25 AM 39.4300 -106.0567 250° West 421 484 32,000 1,597 Climbing Denver Center
Fri 10:38:27 AM 39.3889 -106.2025 250° West 414 476 33,700 1,355 Climbing Denver Center
Fri 10:39:29 AM 39.3450 -106.3578 250° West 411 473 34,800 1,016 Climbing Denver Center
Fri 10:40:31 AM 39.3089 -106.4892 250° West 407 468 35,800 1,016 Climbing Denver Center
Fri 10:41:33 AM 39.2625 -106.6417 249° West 408 470 36,900 1,016 Climbing Denver Center
Fri 10:42:35 AM 39.2131 -106.7642 243° Southwest 405 466 37,900 532 Climbing Denver Center
Fri 10:43:37 AM 39.1303 -106.8942 231° Southwest 420 483 38,000 48 Climbing Denver Center
Fri 10:44:39 AM 39.0578 -107.0075 231° Southwest 427 491 38,000  Level Denver Center
Fri 10:45:41 AM 38.9847 -107.1206 230° Southwest 427 491 38,000  Level Denver Center
Fri 10:46:42 AM 38.8989 -107.2528 230° Southwest 431 496 38,000  Level Denver Center
Fri 10:47:44 AM 38.8269 -107.3633 230° Southwest 423 487 38,000  Level Denver Center
Fri 10:48:46 AM 38.7414 -107.4931 230° Southwest 425 489 38,000  Level Denver Center
Fri 10:49:48 AM 38.6669 -107.6072 230° Southwest 431 496 38,000  Level Denver Center
Fri 10:50:50 AM 38.5819 -107.7386 230° Southwest 429 494 38,000  Level Denver Center
Fri 10:51:52 AM 38.5078 -107.8503 230° Southwest 429 494 38,000  Level Denver Center
Fri 10:52:54 AM 38.4219 -107.9800 230° Southwest 429 494 38,000  Level Denver Center
Fri 10:53:56 AM 38.3481 -108.0908 230° Southwest 429 494 38,000  Level Denver Center
Fri 10:54:58 AM 38.2736 -108.2028 230° Southwest 432 497 38,000  Level Denver Center
Fri 10:56:00 AM 38.1875 -108.3322 230° Southwest 429 494 38,000  Level Denver Center
Fri 10:57:02 AM 38.1117 -108.4442 229° Southwest 433 498 38,000  Level Denver Center
Fri 10:58:04 AM 38.0319 -108.5811 234° Southwest 421 484 38,000  Level Denver Center
Fri 10:59:06 AM 37.9711 -108.7006 237° Southwest 418 481 38,000  Level Denver Center
Fri 11:00:08 AM 37.8992 -108.8428 237° Southwest 427 491 38,000  Level Denver Center
Fri 11:01:11 AM 37.8381 -108.9606 237° Southwest 423 487 38,000  Level Denver Center
Fri 11:02:13 AM 37.7664 -109.0992 237° Southwest 423 487 38,000  Level Denver Center
Fri 11:03:15 AM 37.7056 -109.2186 237° Southwest 423 487 38,000  Level Denver Center
Fri 11:04:17 AM 37.6331 -109.3567 236° Southwest 423 487 38,000  Level Denver Center
Fri 11:05:19 AM 37.5725 -109.4744 237° Southwest 419 482 38,000  Level Denver Center
Fri 11:06:21 AM 37.5111 -109.5936 237° Southwest 423 487 38,000  Level Denver Center
Fri 11:07:23 AM 37.4386 -109.7306 236° Southwest 423 487 38,000  Level Denver Center
Fri 11:08:25 AM 37.3764 -109.8489 237° Southwest 424 488 38,000  Level Denver Center
Fri 11:09:27 AM 37.3047 -109.9850 237° Southwest 421 484 38,000  Level Denver Center
Fri 11:10:29 AM 37.2417 -110.1028 236° Southwest 423 487 38,000  Level Denver Center
Fri 11:11:31 AM 37.1739 -110.2303 236° Southwest 421 484 38,000  Level Denver Center
Fri 11:12:33 AM 37.1092 -110.3519 236° Southwest 419 482 38,000  Level Denver Center
Fri 11:13:35 AM 37.0447 -110.4736 236° Southwest 420 483 38,000  Level Denver Center
Fri 11:14:37 AM 36.9650 -110.6181 235° Southwest 421 484 38,000  Level Denver Center
Fri 11:15:39 AM 36.9011 -110.7386 236° Southwest 417 480 38,000  Level Denver Center
Fri 11:16:41 AM 36.8358 -110.8594 236° Southwest 420 483 38,000  Level Denver Center
Fri 11:17:43 AM 36.7700 -110.9800 236° Southwest 420 483 38,000  Level Denver Center
Fri 11:18:45 AM 36.7067 -111.0997 237° Southwest 416 479 38,000  Level Denver Center
Fri 11:19:47 AM 36.6383 -111.2211 235° Southwest 422 486 38,000  Level Denver Center
Fri 11:20:49 AM 36.5575 -111.3683 236° Southwest 426 490 38,000  Level Denver Center
Fri 11:21:51 AM 36.4900 -111.4903 235° Southwest 427 491 38,000  Level Denver Center
Fri 11:22:53 AM 36.4211 -111.6144 235° Southwest 432 497 38,000  Level Denver Center
Fri 11:23:55 AM 36.3528 -111.7364 235° Southwest 431 496 38,000  Level Denver Center
Fri 11:24:57 AM 36.2844 -111.8581 235° Southwest 431 496 38,000  Level Denver Center
Fri 11:25:46 AM 36.2294 -111.9558 235° Southwest 431 496 38,000  Level Los Angeles Center
Fri 11:26:49 AM 36.1558 -112.0864 235° Southwest 436 502 38,000  Level Los Angeles Center
Fri 11:27:51 AM 36.0886 -112.2078 236° Southwest 431 496 38,000  Level Los Angeles Center
Fri 11:28:53 AM 36.0103 -112.3450 235° Southwest 427 491 38,000  Level Los Angeles Center
Fri 11:29:55 AM 35.9378 -112.4714 235° Southwest 428 493 38,000  Level Los Angeles Center
Fri 11:30:57 AM 35.8692 -112.5928 235° Southwest 431 496 38,000  Level Los Angeles Center
Fri 11:31:59 AM 35.8011 -112.7136 235° Southwest 433 498 38,000  Level Los Angeles Center
Fri 11:33:01 AM 35.7325 -112.8336 235° Southwest 432 497 38,000  Level Los Angeles Center
Fri 11:34:03 AM 35.6475 -112.9764 234° Southwest 429 494 38,000  Level Los Angeles Center
Fri 11:35:06 AM 35.5789 -113.0961 235° Southwest 428 493 38,000  Level Los Angeles Center
Fri 11:36:08 AM 35.5089 -113.2161 234° Southwest 430 495 38,000  Level Los Angeles Center
Fri 11:37:10 AM 35.4436 -113.3300 235° Southwest 437 503 38,000  Level Los Angeles Center
Fri 11:38:12 AM 35.3750 -113.4483 235° Southwest 432 497 38,000  Level Los Angeles Center
Fri 11:39:14 AM 35.2917 -113.5894 234° Southwest 430 495 38,000  Level Los Angeles Center
Fri 11:40:16 AM 35.2222 -113.7067 234° Southwest 429 494 38,000  Level Los Angeles Center
Fri 11:41:18 AM 35.1544 -113.8233 235° Southwest 424 488 38,000  Level Los Angeles Center
Fri 11:42:20 AM 35.0767 -113.9544 234° Southwest 425 489 38,000  Level Los Angeles Center
Fri 11:43:22 AM 35.0056 -114.0736 234° Southwest 431 496 38,000  Level Los Angeles Center
Fri 11:44:25 AM 34.9344 -114.1925 234° Southwest 433 498 38,000 -192 Level Los Angeles Center
Fri 11:45:27 AM 34.8658 -114.3139 235° Southwest 433 498 37,600 -677 Descending Los Angeles Center
Fri 11:46:29 AM 34.8175 -114.4483 246° West 433 498 36,600 -1,056 Descending Los Angeles Center
Fri 11:47:32 AM 34.7575 -114.6106 246° West 436 502 35,400 -1,065 Descending Los Angeles Center
Fri 11:48:33 AM 34.7050 -114.7483 245° Southwest 446 513 34,400 -683 Descending Los Angeles Center
Fri 11:49:35 AM 34.6508 -114.8917 245° Southwest 456 525 34,000 -194 Descending Los Angeles Center
Fri 11:50:37 AM 34.5986 -115.0303 245° Southwest 454 522 34,000  Level Los Angeles Center
Fri 11:51:39 AM 34.5458 -115.1700 245° Southwest 455 524 34,000  Level Los Angeles Center
Fri 11:52:41 AM 34.4925 -115.3081 245° Southwest 455 524 34,000  Level Los Angeles Center
Fri 11:53:43 AM 34.4397 -115.4464 245° Southwest 453 521 34,000 -339 Level Los Angeles Center
Fri 11:54:45 AM 34.3869 -115.5850 245° Southwest 454 522 33,300 -1,776 Descending Los Angeles Center
Fri 11:55:48 AM 34.3222 -115.7519 245° Southwest 458 527 30,300 -2,640 Descending Los Angeles Center
Fri 11:56:50 AM 34.2672 -115.8947 245° Southwest 446 513 27,800 -1,597 Descending Los Angeles Center
Fri 11:57:52 AM 34.2142 -116.0281 244° Southwest 441 507 27,000 -387 Descending Los Angeles Center
Fri 11:58:54 AM 34.1631 -116.1583 245° Southwest 432 497 27,000 -145 Level Los Angeles Center
Fri 11:59:56 AM 34.1042 -116.3081 245° Southwest 436 502 26,700 -1,548 Descending Los Angeles Center
Fri 12:00:58 PM 34.0514 -116.4414 244° Southwest 442 509 23,800 -2,516 Descending Los Angeles Center
Fri 12:02:00 PM 34.0108 -116.5433 244° Southwest 430 495 21,500 -2,710 Descending Los Angeles Center
Fri 12:03:02 PM 33.9539 -116.6897 245° Southwest 407 468 18,200 -2,736 Descending Los Angeles Center
Fri 12:04:05 PM 33.9061 -116.8078 244° Southwest 397 457 15,800 -2,064 Descending Los Angeles Center
Fri 12:05:07 PM 33.8575 -116.9500 248° West 386 444 13,900 -1,355 Descending Los Angeles Center
Fri 12:06:09 PM 33.8456 -117.0550 262° West 364 419 13,000 -1,306 Descending Los Angeles Center
Fri 12:07:11 PM 33.8272 -117.2039 262° West 374 430 11,200 -1,452 Descending Los Angeles Center
Fri 12:08:13 PM 33.8131 -117.3242 262° West 366 421 10,000 -1,065 Descending Los Angeles Center
Fri 12:09:15 PM 33.8017 -117.4178 262° West 289 333 9,000 -968 Descending Los Angeles Center
Fri 12:10:17 PM 33.7925 -117.5056 263° West 268 308 8,000 -774 Descending Los Angeles Center
Fri 12:11:19 PM 33.7825 -117.5783 261° West 229 264 7,400 -737 Descending Los Angeles Center
Fri 12:12:11 PM 33.7833 -117.6500 271° West 219 252 6,600 -1,071 Descending Southern California TRACON
Fri 12:13:11 PM 33.7833 -117.7167 270° West 202 232 5,400 -1,400 Descending Southern California TRACON
Fri 12:14:11 PM 33.7833 -117.7833 270° West 180 207 3,800 -1,467 Descending Southern California TRACON
Fri 12:16:11 PM 33.7167 -117.8500 220° Southwest 142 163 1,000 -1,233 Descending Southern California TRACON
Fri 12:17:11 PM 33.6833 -117.8667 203° Southwest 126 145 100 -900 Descending Southern California TRACON
Fri 12:19:00 PM 33.6757 -117.8682 132° Southeast  Level Estimated

Login

Don't have an account? Register now (free) for customized features, flight alerts, and more!